sensor_id;sensor_type;location;lat;lon;timestamp;pressure;altitude;pressure_sealevel;temperature;humidity
70407;BME280;57821;52.202;0.154;2022-12-18T00:01:23;102348.47;;;-1.79;93.31
70407;BME280;57821;52.202;0.154;2022-12-18T00:03:51;102361.09;;;-1.81;93.45
70407;BME280;57821;52.202;0.154;2022-12-18T00:06:19;102357.56;;;-1.83;93.12
70407;BME280;57821;52.202;0.154;2022-12-18T00:08:46;102350.50;;;-1.87;93.13
70407;BME280;57821;52.202;0.154;2022-12-18T00:11:18;102352.22;;;-1.86;93.90
70407;BME280;57821;52.202;0.154;2022-12-18T00:13:45;102357.56;;;-1.83;93.43
70407;BME280;57821;52.202;0.154;2022-12-18T00:16:14;102346.81;;;-1.90;93.75
70407;BME280;57821;52.202;0.154;2022-12-18T00:18:41;102352.22;;;-1.86;93.64
70407;BME280;57821;52.202;0.154;2022-12-18T00:21:10;102357.31;;;-1.86;94.12
70407;BME280;57821;52.202;0.154;2022-12-18T00:23:38;102352.22;;;-1.86;93.53
70407;BME280;57821;52.202;0.154;2022-12-18T00:26:11;102354.69;;;-1.87;94.42
70407;BME280;57821;52.202;0.154;2022-12-18T00:28:41;102353.81;;;-1.88;93.97
70407;BME280;57821;52.202;0.154;2022-12-18T00:31:11;102344.59;;;-1.86;93.97
70407;BME280;57821;52.202;0.154;2022-12-18T00:33:38;102338.53;;;-1.88;93.92
70407;BME280;57821;52.202;0.154;2022-12-18T00:36:14;102335.00;;;-1.90;93.90
70407;BME280;57821;52.202;0.154;2022-12-18T00:38:41;102334.13;;;-1.90;94.07
70407;BME280;57821;52.202;0.154;2022-12-18T00:41:10;102327.69;;;-1.97;93.14
70407;BME280;57821;52.202;0.154;2022-12-18T00:43:38;102327.94;;;-1.94;93.33
70407;BME280;57821;52.202;0.154;2022-12-18T00:46:06;102334.69;;;-1.94;93.45
70407;BME280;57821;52.202;0.154;2022-12-18T00:48:32;102332.13;;;-1.94;93.20
70407;BME280;57821;52.202;0.154;2022-12-18T00:50:59;102332.91;;;-1.95;93.50
70407;BME280;57821;52.202;0.154;2022-12-18T00:53:25;102331.00;;;-1.98;92.96
70407;BME280;57821;52.202;0.154;2022-12-18T00:55:52;102327.50;;;-2.00;93.54
70407;BME280;57821;52.202;0.154;2022-12-18T00:58:18;102318.75;;;-2.03;93.31
70407;BME280;57821;52.202;0.154;2022-12-18T01:00:45;102321.97;;;-2.06;94.15
70407;BME280;57821;52.202;0.154;2022-12-18T01:03:14;102314.91;;;-2.10;92.86
70407;BME280;57821;52.202;0.154;2022-12-18T01:05:43;102321.53;;;-2.12;93.87
70407;BME280;57821;52.202;0.154;2022-12-18T01:08:10;102304.19;;;-2.18;93.83
70407;BME280;57821;52.202;0.154;2022-12-18T01:10:40;102310.16;;;-2.17;93.19
70407;BME280;57821;52.202;0.154;2022-12-18T01:13:06;102307.63;;;-2.17;93.11
70407;BME280;57821;52.202;0.154;2022-12-18T01:15:33;102303.44;;;-2.17;92.95
70407;BME280;57821;52.202;0.154;2022-12-18T01:17:59;102303.44;;;-2.17;94.45
70407;BME280;57821;52.202;0.154;2022-12-18T01:20:26;102302.09;;;-2.12;94.10
70407;BME280;57821;52.202;0.154;2022-12-18T01:22:52;102297.34;;;-2.07;94.55
70407;BME280;57821;52.202;0.154;2022-12-18T01:25:19;102298.53;;;-2.02;94.63
70407;BME280;57821;52.202;0.154;2022-12-18T01:27:45;102306.59;;;-1.96;94.21
70407;BME280;57821;52.202;0.154;2022-12-18T01:30:12;102301.06;;;-1.90;94.94
70407;BME280;57821;52.202;0.154;2022-12-18T01:32:38;102304.03;;;-1.84;95.18
70407;BME280;57821;52.202;0.154;2022-12-18T01:35:05;102301.81;;;-1.80;94.12
70407;BME280;57821;52.202;0.154;2022-12-18T01:37:32;102306.44;;;-1.74;94.51
70407;BME280;57821;52.202;0.154;2022-12-18T01:39:58;102300.06;;;-1.69;95.60
70407;BME280;57821;52.202;0.154;2022-12-18T01:42:25;102286.53;;;-1.68;94.93
70407;BME280;57821;52.202;0.154;2022-12-18T01:49:56;102285.84;;;-1.54;94.29
70407;BME280;57821;52.202;0.154;2022-12-18T01:52:25;102286.91;;;-1.50;95.21
70407;BME280;57821;52.202;0.154;2022-12-18T01:54:52;102287.16;;;-1.47;94.78
70407;BME280;57821;52.202;0.154;2022-12-18T01:57:20;102282.25;;;-1.44;94.35
70407;BME280;57821;52.202;0.154;2022-12-18T01:59:50;102287.47;;;-1.43;94.23
70407;BME280;57821;52.202;0.154;2022-12-18T02:02:18;102283.25;;;-1.42;94.01
70407;BME280;57821;52.202;0.154;2022-12-18T02:04:46;102275.63;;;-1.42;95.05
70407;BME280;57821;52.202;0.154;2022-12-18T02:07:21;102276.50;;;-1.42;94.04
70407;BME280;57821;52.202;0.154;2022-12-18T02:10:10;102273.06;;;-1.42;94.84
70407;BME280;57821;52.202;0.154;2022-12-18T02:12:50;102265.78;;;-1.49;94.84
70407;BME280;57821;52.202;0.154;2022-12-18T02:15:26;102267.00;;;-1.44;94.09
70407;BME280;57821;52.202;0.154;2022-12-18T02:18:09;102269.34;;;-1.47;94.26
70407;BME280;57821;52.202;0.154;2022-12-18T02:20:46;102269.69;;;-1.54;94.15
70407;BME280;57821;52.202;0.154;2022-12-18T02:23:41;102283.59;;;-1.49;94.03
70407;BME280;57821;52.202;0.154;2022-12-18T02:28:58;102295.31;;;-1.51;93.89
70407;BME280;57821;52.202;0.154;2022-12-18T02:31:31;102296.13;;;-1.52;94.52
70407;BME280;57821;52.202;0.154;2022-12-18T02:34:03;102300.34;;;-1.53;94.47
70407;BME280;57821;52.202;0.154;2022-12-18T02:36:38;102307.84;;;-1.54;93.81
70407;BME280;57821;52.202;0.154;2022-12-18T02:39:09;102310.19;;;-1.57;94.17
70407;BME280;57821;52.202;0.154;2022-12-18T02:41:42;102307.66;;;-1.57;93.51
70407;BME280;57821;52.202;0.154;2022-12-18T02:44:11;102315.72;;;-1.63;94.11
70407;BME280;57821;52.202;0.154;2022-12-18T02:46:51;102308.34;;;-1.72;93.43
70407;BME280;57821;52.202;0.154;2022-12-18T02:49:36;102306.38;;;-1.76;93.32
70407;BME280;57821;52.202;0.154;2022-12-18T02:52:49;102309.88;;;-1.74;94.30
70407;BME280;57821;52.202;0.154;2022-12-18T02:55:41;102305.34;;;-1.78;93.54
70407;BME280;57821;52.202;0.154;2022-12-18T02:58:20;102311.97;;;-1.80;93.13
70407;BME280;57821;52.202;0.154;2022-12-18T03:01:21;102321.97;;;-1.83;93.17
70407;BME280;57821;52.202;0.154;2022-12-18T03:03:55;102320.19;;;-1.84;92.97
70407;BME280;57821;52.202;0.154;2022-12-18T03:06:28;102317.97;;;-1.91;93.42
70407;BME280;57821;52.202;0.154;2022-12-18T03:09:02;102321.72;;;-1.86;93.79
70407;BME280;57821;52.202;0.154;2022-12-18T03:11:33;102319.97;;;-1.87;93.28
70407;BME280;57821;52.202;0.154;2022-12-18T03:14:00;102313.13;;;-1.88;93.22
70407;BME280;57821;52.202;0.154;2022-12-18T03:16:30;102306.16;;;-1.90;93.34
70407;BME280;57821;52.202;0.154;2022-12-18T03:19:07;102316.44;;;-1.89;93.50
70407;BME280;57821;52.202;0.154;2022-12-18T03:21:46;102302.28;;;-1.97;93.51
70407;BME280;57821;52.202;0.154;2022-12-18T03:24:17;102309.38;;;-1.93;94.22
70407;BME280;57821;52.202;0.154;2022-12-18T03:26:48;102301.09;;;-2.02;93.13
70407;BME280;57821;52.202;0.154;2022-12-18T03:32:01;102299.31;;;-2.03;93.74
70407;BME280;57821;52.202;0.154;2022-12-18T03:34:34;102284.31;;;-2.12;94.06
70407;BME280;57821;52.202;0.154;2022-12-18T03:37:05;102289.59;;;-2.09;93.53
70407;BME280;57821;52.202;0.154;2022-12-18T03:39:34;102280.88;;;-2.12;93.36
70407;BME280;57821;52.202;0.154;2022-12-18T03:42:12;102272.56;;;-2.21;93.32
70407;BME280;57821;52.202;0.154;2022-12-18T03:45:09;102271.81;;;-2.20;93.51
70407;BME280;57821;52.202;0.154;2022-12-18T03:47:59;102273.13;;;-2.25;93.66
70407;BME280;57821;52.202;0.154;2022-12-18T03:55:44;102255.81;;;-2.31;94.00
70407;BME280;57821;52.202;0.154;2022-12-18T03:58:16;102263.31;;;-2.32;93.95
70407;BME280;57821;52.202;0.154;2022-12-18T04:00:56;102253.06;;;-2.34;93.12
70407;BME280;57821;52.202;0.154;2022-12-18T04:03:24;102271.72;;;-2.33;93.73
70407;BME280;57821;52.202;0.154;2022-12-18T04:05:54;102259.78;;;-2.34;93.10
70407;BME280;57821;52.202;0.154;2022-12-18T04:08:22;102256.38;;;-2.35;93.11
70407;BME280;57821;52.202;0.154;2022-12-18T04:10:59;102251.28;;;-2.35;93.82
70407;BME280;57821;52.202;0.154;2022-12-18T04:13:32;102240.81;;;-2.39;93.14
70407;BME280;57821;52.202;0.154;2022-12-18T04:16:02;102240.69;;;-2.29;93.46
70407;BME280;57821;52.202;0.154;2022-12-18T04:18:29;102235.78;;;-2.26;94.86
70407;BME280;57821;52.202;0.154;2022-12-18T04:20:56;102235.78;;;-2.26;94.32
70407;BME280;57821;52.202;0.154;2022-12-18T04:23:23;102237.81;;;-2.22;93.92
70407;BME280;57821;52.202;0.154;2022-12-18T04:25:50;102238.00;;;-2.19;93.60
70407;BME280;57821;52.202;0.154;2022-12-18T04:28:30;102238.13;;;-2.18;93.72
70407;BME280;57821;52.202;0.154;2022-12-18T04:30:56;102231.50;;;-2.16;93.31
70407;BME280;57821;52.202;0.154;2022-12-18T04:33:23;102233.34;;;-2.13;94.01
70407;BME280;57821;52.202;0.154;2022-12-18T04:35:50;102223.44;;;-2.10;94.77
70407;BME280;57821;52.202;0.154;2022-12-18T04:38:16;102218.78;;;-2.04;94.76
70407;BME280;57821;52.202;0.154;2022-12-18T04:40:44;102202.94;;;-2.00;95.82
70407;BME280;57821;52.202;0.154;2022-12-18T04:43:19;102196.84;;;-1.90;95.31
70407;BME280;57821;52.202;0.154;2022-12-18T04:45:46;102197.25;;;-1.84;96.19
70407;BME280;57821;52.202;0.154;2022-12-18T04:48:12;102194.25;;;-1.79;95.39
70407;BME280;57821;52.202;0.154;2022-12-18T04:50:38;102185.50;;;-1.71;96.40
70407;BME280;57821;52.202;0.154;2022-12-18T04:53:06;102189.22;;;-1.66;96.51
70407;BME280;57821;52.202;0.154;2022-12-18T04:55:32;102196.28;;;-1.61;95.79
70407;BME280;57821;52.202;0.154;2022-12-18T04:57:59;102195.03;;;-1.55;95.77
70407;BME280;57821;52.202;0.154;2022-12-18T05:00:25;102184.38;;;-1.49;95.71
70407;BME280;57821;52.202;0.154;2022-12-18T05:02:52;102180.28;;;-1.47;95.31
70407;BME280;57821;52.202;0.154;2022-12-18T05:05:19;102178.94;;;-1.42;95.45
70407;BME280;57821;52.202;0.154;2022-12-18T05:07:45;102185.09;;;-1.39;95.33
70407;BME280;57821;52.202;0.154;2022-12-18T05:10:12;102181.91;;;-1.36;95.97
70407;BME280;57821;52.202;0.154;2022-12-18T05:12:38;102179.75;;;-1.30;95.30
70407;BME280;57821;52.202;0.154;2022-12-18T05:15:05;102179.94;;;-1.27;95.59
70407;BME280;57821;52.202;0.154;2022-12-18T05:17:32;102174.97;;;-1.26;95.63
70407;BME280;57821;52.202;0.154;2022-12-18T05:19:58;102166.75;;;-1.21;95.61
70407;BME280;57821;52.202;0.154;2022-12-18T05:22:25;102165.31;;;-1.18;95.76
70407;BME280;57821;52.202;0.154;2022-12-18T05:24:51;102152.75;;;-1.15;95.85
70407;BME280;57821;52.202;0.154;2022-12-18T05:27:18;102129.19;;;-1.12;94.82
70407;BME280;57821;52.202;0.154;2022-12-18T05:29:44;102115.75;;;-1.10;95.03
70407;BME280;57821;52.202;0.154;2022-12-18T05:32:11;102109.88;;;-1.09;95.11
70407;BME280;57821;52.202;0.154;2022-12-18T05:34:37;102104.19;;;-1.05;95.27
70407;BME280;57821;52.202;0.154;2022-12-18T05:37:04;102088.16;;;-1.04;94.79
70407;BME280;57821;52.202;0.154;2022-12-18T05:39:30;102088.34;;;-1.01;94.64
70407;BME280;57821;52.202;0.154;2022-12-18T05:41:57;102089.31;;;-0.99;95.13
70407;BME280;57821;52.202;0.154;2022-12-18T05:44:23;102077.56;;;-0.97;95.31
70407;BME280;57821;52.202;0.154;2022-12-18T05:46:50;102070.03;;;-0.95;95.28
70407;BME280;57821;52.202;0.154;2022-12-18T05:49:16;102071.88;;;-0.93;95.40
70407;BME280;57821;52.202;0.154;2022-12-18T05:51:43;102063.47;;;-0.92;94.60
70407;BME280;57821;52.202;0.154;2022-12-18T05:54:09;102056.81;;;-0.90;95.01
70407;BME280;57821;52.202;0.154;2022-12-18T05:56:35;102057.69;;;-0.89;94.55
70407;BME280;57821;52.202;0.154;2022-12-18T05:59:02;102058.66;;;-0.87;94.32
70407;BME280;57821;52.202;0.154;2022-12-18T06:01:29;102054.56;;;-0.85;94.58
70407;BME280;57821;52.202;0.154;2022-12-18T06:03:56;102059.75;;;-0.84;94.80
70407;BME280;57821;52.202;0.154;2022-12-18T06:06:25;102062.41;;;-0.82;94.91
70407;BME280;57821;52.202;0.154;2022-12-18T06:08:53;102068.34;;;-0.82;94.22
70407;BME280;57821;52.202;0.154;2022-12-18T06:11:25;102067.56;;;-0.80;94.79
70407;BME280;57821;52.202;0.154;2022-12-18T06:13:53;102054.44;;;-0.87;93.98
70407;BME280;57821;52.202;0.154;2022-12-18T06:16:24;102057.38;;;-0.80;94.32
70407;BME280;57821;52.202;0.154;2022-12-18T06:18:50;102043.88;;;-0.79;95.05
70407;BME280;57821;52.202;0.154;2022-12-18T06:21:17;102040.53;;;-0.78;94.54
70407;BME280;57821;52.202;0.154;2022-12-18T06:23:43;102035.44;;;-0.78;94.39
70407;BME280;57821;52.202;0.154;2022-12-18T06:26:11;102048.06;;;-0.80;94.28
70407;BME280;57821;52.202;0.154;2022-12-18T06:28:38;102041.41;;;-0.78;94.68
70407;BME280;57821;52.202;0.154;2022-12-18T06:31:05;102051.00;;;-0.74;94.79
70407;BME280;57821;52.202;0.154;2022-12-18T06:33:33;102051.88;;;-0.73;94.66
70407;BME280;57821;52.202;0.154;2022-12-18T06:36:02;102047.41;;;-0.77;93.86
70407;BME280;57821;52.202;0.154;2022-12-18T06:38:30;102040.31;;;-0.68;94.14
70407;BME280;57821;52.202;0.154;2022-12-18T06:40:57;102046.41;;;-0.66;94.44
70407;BME280;57821;52.202;0.154;2022-12-18T06:43:23;102042.34;;;-0.63;94.29
70407;BME280;57821;52.202;0.154;2022-12-18T06:45:50;102038.16;;;-0.62;93.75
70407;BME280;57821;52.202;0.154;2022-12-18T06:48:16;102047.66;;;-0.60;94.72
70407;BME280;57821;52.202;0.154;2022-12-18T06:50:43;102051.97;;;-0.59;94.32
70407;BME280;57821;52.202;0.154;2022-12-18T06:53:09;102043.63;;;-0.56;94.60
70407;BME280;57821;52.202;0.154;2022-12-18T06:55:36;102042.06;;;-0.54;93.80
70407;BME280;57821;52.202;0.154;2022-12-18T06:58:03;102039.78;;;-0.50;94.08
70407;BME280;57821;52.202;0.154;2022-12-18T07:00:29;102050.84;;;-0.49;94.41
70407;BME280;57821;52.202;0.154;2022-12-18T07:02:56;102047.59;;;-0.47;93.91
70407;BME280;57821;52.202;0.154;2022-12-18T07:05:22;102029.75;;;-0.47;94.12
70407;BME280;57821;52.202;0.154;2022-12-18T07:07:49;102040.31;;;-0.41;94.23
70407;BME280;57821;52.202;0.154;2022-12-18T07:10:15;102032.41;;;-0.45;94.23
70407;BME280;57821;52.202;0.154;2022-12-18T07:12:42;102043.19;;;-0.36;94.33
70407;BME280;57821;52.202;0.154;2022-12-18T07:15:09;102041.56;;;-0.34;93.72
70407;BME280;57821;52.202;0.154;2022-12-18T07:17:35;102044.22;;;-0.32;93.37
70407;BME280;57821;52.202;0.154;2022-12-18T07:20:02;102039.22;;;-0.31;93.23
70407;BME280;57821;52.202;0.154;2022-12-18T07:22:28;102039.34;;;-0.29;93.61
70407;BME280;57821;52.202;0.154;2022-12-18T07:24:55;102030.00;;;-0.29;93.38
70407;BME280;57821;52.202;0.154;2022-12-18T07:27:22;102033.53;;;-0.27;93.29
70407;BME280;57821;52.202;0.154;2022-12-18T07:29:48;102035.28;;;-0.26;93.67
70407;BME280;57821;52.202;0.154;2022-12-18T07:32:15;102043.91;;;-0.24;93.10
70407;BME280;57821;52.202;0.154;2022-12-18T07:34:42;102037.06;;;-0.25;92.94
70407;BME280;57821;52.202;0.154;2022-12-18T07:37:08;102036.28;;;-0.24;92.86
70407;BME280;57821;52.202;0.154;2022-12-18T07:39:35;102030.34;;;-0.23;93.06
70407;BME280;57821;52.202;0.154;2022-12-18T07:42:01;102022.81;;;-0.21;93.15
70407;BME280;57821;52.202;0.154;2022-12-18T07:44:27;102021.13;;;-0.21;92.84
70407;BME280;57821;52.202;0.154;2022-12-18T07:46:54;102006.72;;;-0.20;92.96
70407;BME280;57821;52.202;0.154;2022-12-18T07:49:20;101997.41;;;-0.20;92.75
70407;BME280;57821;52.202;0.154;2022-12-18T07:51:47;101986.44;;;-0.19;93.25
70407;BME280;57821;52.202;0.154;2022-12-18T07:54:13;101978.00;;;-0.18;93.02
70407;BME280;57821;52.202;0.154;2022-12-18T07:56:40;101965.31;;;-0.16;92.88
70407;BME280;57821;52.202;0.154;2022-12-18T07:59:06;101955.13;;;-0.16;92.79
70407;BME280;57821;52.202;0.154;2022-12-18T08:01:33;101961.09;;;-0.16;93.21
70407;BME280;57821;52.202;0.154;2022-12-18T08:04:00;101967.19;;;-0.14;92.60
70407;BME280;57821;52.202;0.154;2022-12-18T08:06:26;101978.34;;;-0.12;92.76
70407;BME280;57821;52.202;0.154;2022-12-18T08:08:54;101975.88;;;-0.10;92.87
70407;BME280;57821;52.202;0.154;2022-12-18T08:11:21;101965.88;;;-0.07;93.29
70407;BME280;57821;52.202;0.154;2022-12-18T08:13:48;101963.41;;;-0.06;92.62
70407;BME280;57821;52.202;0.154;2022-12-18T08:16:15;101962.59;;;-0.05;92.09
70407;BME280;57821;52.202;0.154;2022-12-18T08:18:42;101963.59;;;-0.03;92.17
70407;BME280;57821;52.202;0.154;2022-12-18T08:21:10;101966.13;;;-0.03;92.42
70407;BME280;57821;52.202;0.154;2022-12-18T08:23:37;101966.41;;;0.02;92.51
70407;BME280;57821;52.202;0.154;2022-12-18T08:26:09;101981.00;;;0.05;91.50
70407;BME280;57821;52.202;0.154;2022-12-18T08:28:35;101972.63;;;0.07;92.29
70407;BME280;57821;52.202;0.154;2022-12-18T08:31:02;101974.31;;;0.07;92.25
70407;BME280;57821;52.202;0.154;2022-12-18T08:33:29;101978.72;;;0.09;92.04
70407;BME280;57821;52.202;0.154;2022-12-18T08:35:55;101979.75;;;0.13;91.85
70407;BME280;57821;52.202;0.154;2022-12-18T08:38:22;101971.31;;;0.14;91.64
70407;BME280;57821;52.202;0.154;2022-12-18T08:40:48;101968.97;;;0.17;91.75
70407;BME280;57821;52.202;0.154;2022-12-18T08:43:15;101969.91;;;0.19;91.51
70407;BME280;57821;52.202;0.154;2022-12-18T08:45:41;101980.31;;;0.22;91.32
70407;BME280;57821;52.202;0.154;2022-12-18T08:48:08;101967.72;;;0.25;90.83
70407;BME280;57821;52.202;0.154;2022-12-18T08:50:34;101964.47;;;0.27;90.78
70407;BME280;57821;52.202;0.154;2022-12-18T08:53:00;101953.53;;;0.30;90.90
70407;BME280;57821;52.202;0.154;2022-12-18T08:55:27;101958.75;;;0.31;90.66
70407;BME280;57821;52.202;0.154;2022-12-18T08:57:53;101948.72;;;0.34;90.38
70407;BME280;57821;52.202;0.154;2022-12-18T09:00:20;101954.75;;;0.36;90.67
70407;BME280;57821;52.202;0.154;2022-12-18T09:02:46;101966.03;;;0.40;90.44
70407;BME280;57821;52.202;0.154;2022-12-18T09:05:13;101967.00;;;0.42;90.71
70407;BME280;57821;52.202;0.154;2022-12-18T09:07:40;101967.97;;;0.44;90.16
70407;BME280;57821;52.202;0.154;2022-12-18T09:10:07;101983.63;;;0.50;90.14
70407;BME280;57821;52.202;0.154;2022-12-18T09:12:33;101973.41;;;0.50;89.66
70407;BME280;57821;52.202;0.154;2022-12-18T09:15:00;101978.69;;;0.53;89.21
70407;BME280;57821;52.202;0.154;2022-12-18T09:17:26;101979.66;;;0.55;89.54
70407;BME280;57821;52.202;0.154;2022-12-18T09:19:52;101970.41;;;0.57;89.10
70407;BME280;57821;52.202;0.154;2022-12-18T09:22:19;101971.44;;;0.61;89.75
70407;BME280;57821;52.202;0.154;2022-12-18T09:24:45;101968.22;;;0.63;89.41
70407;BME280;57821;52.202;0.154;2022-12-18T09:27:12;101966.69;;;0.67;89.21
70407;BME280;57821;52.202;0.154;2022-12-18T09:29:38;101971.09;;;0.69;88.75
70407;BME280;57821;52.202;0.154;2022-12-18T09:32:05;101958.41;;;0.71;88.73
70407;BME280;57821;52.202;0.154;2022-12-18T09:34:31;101957.69;;;0.73;88.45
70407;BME280;57821;52.202;0.154;2022-12-18T09:36:58;101946.75;;;0.76;88.60
70407;BME280;57821;52.202;0.154;2022-12-18T09:39:24;101939.91;;;0.75;88.47
70407;BME280;57821;52.202;0.154;2022-12-18T09:41:53;101958.03;;;0.79;88.47
70407;BME280;57821;52.202;0.154;2022-12-18T09:44:29;101943.59;;;0.80;88.34
70407;BME280;57821;52.202;0.154;2022-12-18T09:47:12;101950.63;;;0.84;88.17
70407;BME280;57821;52.202;0.154;2022-12-18T09:49:46;101948.16;;;0.86;87.59
70407;BME280;57821;52.202;0.154;2022-12-18T09:57:31;101929.09;;;0.95;88.10
70407;BME280;57821;52.202;0.154;2022-12-18T10:00:08;101921.97;;;0.90;87.62
70407;BME280;57821;52.202;0.154;2022-12-18T10:02:37;101939.63;;;1.01;87.37
70407;BME280;57821;52.202;0.154;2022-12-18T10:05:07;101932.84;;;1.02;87.33
70407;BME280;57821;52.202;0.154;2022-12-18T10:07:57;101940.75;;;1.06;87.23
70407;BME280;57821;52.202;0.154;2022-12-18T10:13:54;101954.72;;;1.13;87.06
70407;BME280;57821;52.202;0.154;2022-12-18T10:16:17;101949.81;;;1.16;86.98
70407;BME280;57821;52.202;0.154;2022-12-18T10:22:33;101937.34;;;1.22;87.21
70407;BME280;57821;52.202;0.154;2022-12-18T10:27:33;101924.06;;;1.29;86.81
70407;BME280;57821;52.202;0.154;2022-12-18T10:30:03;101897.41;;;1.24;86.94
70407;BME280;57821;52.202;0.154;2022-12-18T10:32:35;101915.84;;;1.35;87.24
70407;BME280;57821;52.202;0.154;2022-12-18T10:35:01;101903.94;;;1.35;86.33
70407;BME280;57821;52.202;0.154;2022-12-18T10:37:29;101884.31;;;1.34;86.44
70407;BME280;57821;52.202;0.154;2022-12-18T10:40:13;101888.16;;;1.42;86.36
70407;BME280;57821;52.202;0.154;2022-12-18T10:43:11;101860.81;;;1.41;85.74
70407;BME280;57821;52.202;0.154;2022-12-18T10:45:38;101856.19;;;1.50;85.60
70407;BME280;57821;52.202;0.154;2022-12-18T10:48:16;101855.44;;;1.53;86.13
70407;BME280;57821;52.202;0.154;2022-12-18T10:50:46;101851.13;;;1.52;85.25
70407;BME280;57821;52.202;0.154;2022-12-18T10:53:36;101845.41;;;1.56;85.46
70407;BME280;57821;52.202;0.154;2022-12-18T10:56:04;101842.41;;;1.64;86.24
70407;BME280;57821;52.202;0.154;2022-12-18T10:58:37;101850.25;;;1.68;85.84
70407;BME280;57821;52.202;0.154;2022-12-18T11:01:15;101850.38;;;1.71;85.48
70407;BME280;57821;52.202;0.154;2022-12-18T11:03:44;101841.78;;;1.69;85.88
70407;BME280;57821;52.202;0.154;2022-12-18T11:06:18;101837.00;;;1.76;86.05
70407;BME280;57821;52.202;0.154;2022-12-18T11:08:58;101841.50;;;1.80;85.34
70407;BME280;57821;52.202;0.154;2022-12-18T11:11:25;101836.59;;;1.85;85.15
70407;BME280;57821;52.202;0.154;2022-12-18T11:16:23;101819.03;;;1.92;85.13
70407;BME280;57821;52.202;0.154;2022-12-18T11:18:50;101817.53;;;1.96;85.21
70407;BME280;57821;52.202;0.154;2022-12-18T11:21:17;101809.06;;;1.97;85.44
70407;BME280;57821;52.202;0.154;2022-12-18T11:23:49;101796.91;;;1.93;84.87
70407;BME280;57821;52.202;0.154;2022-12-18T11:26:17;101798.06;;;1.99;84.85
70407;BME280;57821;52.202;0.154;2022-12-18T11:29:07;101793.53;;;1.94;84.49
70407;BME280;57821;52.202;0.154;2022-12-18T11:31:34;101797.19;;;1.99;84.00
70407;BME280;57821;52.202;0.154;2022-12-18T11:34:10;101776.38;;;1.91;83.80
70407;BME280;57821;52.202;0.154;2022-12-18T11:36:55;101786.06;;;1.98;84.52
70407;BME280;57821;52.202;0.154;2022-12-18T11:39:37;101781.03;;;2.00;84.82
70407;BME280;57821;52.202;0.154;2022-12-18T11:42:43;101775.13;;;2.01;84.82
70407;BME280;57821;52.202;0.154;2022-12-18T11:47:49;101766.50;;;1.99;83.73
70407;BME280;57821;52.202;0.154;2022-12-18T11:50:21;101752.69;;;1.95;84.80
70407;BME280;57821;52.202;0.154;2022-12-18T11:52:50;101753.00;;;2.01;84.43
70407;BME280;57821;52.202;0.154;2022-12-18T11:58:05;101730.97;;;2.05;84.96
70407;BME280;57821;52.202;0.154;2022-12-18T12:00:45;101698.38;;;2.01;84.88
70407;BME280;57821;52.202;0.154;2022-12-18T12:08:38;101683.59;;;2.13;84.02
70407;BME280;57821;52.202;0.154;2022-12-18T12:22:09;101635.78;;;2.12;84.13
70407;BME280;57821;52.202;0.154;2022-12-18T12:24:52;101635.78;;;2.12;84.90
70407;BME280;57821;52.202;0.154;2022-12-18T12:27:45;101627.03;;;2.07;84.58
70407;BME280;57821;52.202;0.154;2022-12-18T12:30:31;101644.25;;;2.11;84.69
70407;BME280;57821;52.202;0.154;2022-12-18T12:38:25;101623.34;;;2.20;85.02
70407;BME280;57821;52.202;0.154;2022-12-18T12:41:04;101625.13;;;2.22;84.91
70407;BME280;57821;52.202;0.154;2022-12-18T12:43:47;101624.34;;;2.23;84.68
70407;BME280;57821;52.202;0.154;2022-12-18T12:46:18;101624.06;;;2.17;84.60
70407;BME280;57821;52.202;0.154;2022-12-18T12:48:49;101633.66;;;2.21;84.99
70407;BME280;57821;52.202;0.154;2022-12-18T12:51:34;101625.09;;;2.21;85.31
70407;BME280;57821;52.202;0.154;2022-12-18T12:54:03;101604.34;;;2.15;85.64
70407;BME280;57821;52.202;0.154;2022-12-18T12:56:45;101613.09;;;2.20;85.06
70407;BME280;57821;52.202;0.154;2022-12-18T12:59:57;101604.41;;;2.16;84.78
70407;BME280;57821;52.202;0.154;2022-12-18T13:07:56;101578.78;;;2.15;85.00
70407;BME280;57821;52.202;0.154;2022-12-18T13:10:26;101571.22;;;2.18;84.76
70407;BME280;57821;52.202;0.154;2022-12-18T13:13:14;101580.50;;;2.16;85.09
70407;BME280;57821;52.202;0.154;2022-12-18T13:16:09;101577.94;;;2.16;85.68
70407;BME280;57821;52.202;0.154;2022-12-18T13:18:36;101567.78;;;2.17;85.57
70407;BME280;57821;52.202;0.154;2022-12-18T13:23:49;101546.25;;;2.12;85.56
70407;BME280;57821;52.202;0.154;2022-12-18T13:31:12;101502.63;;;2.09;86.36
70407;BME280;57821;52.202;0.154;2022-12-18T13:33:44;101512.03;;;2.10;86.02
70407;BME280;57821;52.202;0.154;2022-12-18T13:36:33;101485.66;;;2.11;85.67
70407;BME280;57821;52.202;0.154;2022-12-18T13:44:35;101470.84;;;2.04;86.54
70407;BME280;57821;52.202;0.154;2022-12-18T13:47:34;101482.19;;;2.09;87.34
70407;BME280;57821;52.202;0.154;2022-12-18T13:53:05;101480.41;;;2.08;87.60
70407;BME280;57821;52.202;0.154;2022-12-18T13:55:31;101484.59;;;2.06;88.21
70407;BME280;57821;52.202;0.154;2022-12-18T13:58:11;101485.34;;;2.03;88.11
70407;BME280;57821;52.202;0.154;2022-12-18T14:00:42;101485.34;;;2.03;88.83
70407;BME280;57821;52.202;0.154;2022-12-18T14:03:20;101469.66;;;1.96;87.99
70407;BME280;57821;52.202;0.154;2022-12-18T14:06:03;101477.47;;;1.99;88.65
70407;BME280;57821;52.202;0.154;2022-12-18T14:08:36;101474.91;;;1.99;89.41
70407;BME280;57821;52.202;0.154;2022-12-18T14:11:05;101465.09;;;1.89;89.06
70407;BME280;57821;52.202;0.154;2022-12-18T14:13:39;101466.16;;;1.94;88.80
70407;BME280;57821;52.202;0.154;2022-12-18T14:16:12;101466.97;;;1.93;89.23
70407;BME280;57821;52.202;0.154;2022-12-18T14:18:52;101460.94;;;1.91;90.34
70407;BME280;57821;52.202;0.154;2022-12-18T14:21:27;101455.66;;;1.88;90.08
70407;BME280;57821;52.202;0.154;2022-12-18T14:24:19;101449.56;;;1.84;90.51
70407;BME280;57821;52.202;0.154;2022-12-18T14:26:48;101447.81;;;1.83;91.04
70407;BME280;57821;52.202;0.154;2022-12-18T14:29:29;101454.53;;;1.81;90.78
70407;BME280;57821;52.202;0.154;2022-12-18T14:32:12;101446.75;;;1.78;90.70
70407;BME280;57821;52.202;0.154;2022-12-18T14:34:51;101442.38;;;1.76;90.70